Aktualne dane pomiarowe

Uwaga, wersja testowa! Automatyczne pobieranie danych za pomocą narzędzi lub skryptów to umożliwiających jest zabronione.

Dane meteo z obszaru Polski uzyskane na podstawie depesz SYNOP pobieranych co godzinę z NWS. Najedź myszką na symbol przedstawiony w tabeli, aby uzyskać informacje co do jego znaczenia. Prosimy pamiętać, że to testowa wersja strony, która jeszcze nie jest ukończona. Stworzono również jest krótki FAQ dotyczący korzystania z tej podstrony Anomalie temperatury w chwili obecnej odniesione są do okresu referencyjnego 1951-2016. Okres ten będzie później zmieniony na 1981-2010. Kliknij ikonę aby pobrać plik CSV. Kliknij ikonę aby wygenerować mapę synoptyczną dla danego terminu.

Wybierz Datę:    

        

Kielce-Suków (12570)

Dane terminowe dla wybranej stacji. Kliknij datę, aby otrzymać dane z tego terminu dla wszystkich stacji.

TemperaturaZachmurzenieWiatrCiśnienieOpadyPogoda
 Data t td wb tx tn tg rh  Nt Nl Cl Cm Ch ws wd g1 g2 wx mslp ppp ch 24h 12h t ww ww w1 w2  
2019-06-30 23:00:00 17.6 14.1 15.2--- 8040.0wx-1wx--11014.1 983.5 -0.1---------
2019-06-30 22:00:00 19.5 15.2 16.6--- 7645.0wx-1wx--11013.9 983.5 0.1---------
2019-06-30 21:00:00 20.8 14.4 16.6--- 6740.0wx-1wx--11014.2 983.9 0.6---------
2019-06-30 20:00:00 23.2 14.2 17.5--- 5750.0wx-wx1wx---1013.6 983.6 0.0---------
2019-06-30 19:00:00 26.2 13.3 18.2--- 4540.0wx-wx2wx--21013.1 983.4 -0.6---------
2019-06-30 18:00:00 29.7 12.6 19.2 34.6 20.3- 3545.0wx-3wx-931012.7 983.3 -1.1- 0.012------
2019-06-30 17:00:00 32.3 10.9 19.4--- 2745.0wx-3wx--31012.7 983.6 -1.5---------
2019-06-30 16:00:00 33.4 9.4 19.1--- 2345.0wx-5wx--51013.0 984.0 -1.7---------
2019-06-30 15:00:00 33.9 9.9 19.5--- 2330.0wx-4wx-941013.4 984.4 -1.8---------
2019-06-30 14:00:00 34.4 9.6 19.5--- 2230.0wx-4wx-841014.1 985.1 -1.6---------
2019-06-30 13:00:00 33.3 11.2 19.9--- 2630.0wx-3wx--31014.8 985.7 -1.4---------
2019-06-30 12:00:00 32.5 11.1 19.5--- 2740.0wx-3wx-831015.4 986.2 -1.4- 0.06------
2019-06-30 11:00:00 32.1 12.3 19.9--- 3030.0wx-3wx-831015.9 986.7 -1.1---------
2019-06-30 10:00:00 30.8 11.7 19.2--- 3128.0wx-4wx-841016.5 987.1 -0.9---------
2019-06-30 09:00:00 29.3 13.5 19.5--- 3830.0wx-3wx---1017.1 987.6 -0.5---------
2019-06-30 08:00:00 27.5 13.4 18.8--- 4227.0wx-3wx--31017.5 987.8 -0.1---------
2019-06-30 07:00:00 24.8 14.0 18.0--- 5128.0wx-wx2wx--21018.0 988.0 0.3---------
2019-06-30 06:00:00 20.3 12.5 15.4 24.7 10.4 9 6124.0wx-wx1wx--11018.6 988.1 0.6- 0.012----- 14.6
2019-06-30 05:00:00 16.9 11.8 13.6--- 7226.0wx-wx0---01018.7 987.9 0.3---------
2019-06-30 04:00:00 12.8 10.2 11.1--- 8420.0wx-wx0----1019.0 987.7 -0.2---------
2019-06-30 03:00:00 10.5 9.3 9.6--- 9222.0wx-1wx--11019.0 987.5 -0.6---------
2019-06-30 02:00:00 10.8 9.4 9.8--- 9120.0wx-wx0---01019.1 987.6 -0.6---------
2019-06-30 01:00:00 11.5 9.6 10.2--- 8827.0wx-1wx--11019.3 987.9 -0.2---------
2019-06-30 00:00:00 12.2 9.6 10.5--- 8430.0wx-1wx--11019.5 988.1 -0.1- 0.06------
2019-06-29 23:00:00 13.4 9.8 11.1--- 7940.0wx-0----1019.4 988.2 0.0---------
2019-06-29 22:00:00 14.4 10.0 11.6--- 7545.0wx-1wx---1019.2 988.1 0.1---------
2019-06-29 21:00:00 16.5 10.1 12.5--- 6645.0wx-0---01019.1 988.2 0.6---------
2019-06-29 20:00:00 18.3 8.5 12.6--- 5335.0wx-wx1wx--11018.9 988.2 0.7---------
2019-06-29 19:00:00 22.5 7.1 13.9--- 3750.0wx-wx2wx--21018.2 988.0 0.4---------
2019-06-29 18:00:00 24.6 8.5 15.4 26.7 17.1- 3645.0wx-wx3wx-1131017.6 987.6 -0.3- 0.012------
2019-06-29 17:00:00 25.8 9.2 16.2--- 3545.0wx-wx4wx9--1017.4 987.5 -0.9---------
2019-06-29 16:00:00 26.1 9.0 16.2--- 3440.0wxwxwxwx5wx---1017.5 987.6 -1.3---------
2019-06-29 15:00:00 26.2 9.5 16.5--- 3535.0wxwxwxwx4wx91041017.8 987.9 -1.7---------
2019-06-29 14:00:00 25.9 8.8 16.0--- 3440.0wxwxwxwx4wx---1018.3 988.4 -1.5---------
2019-06-29 13:00:00 25.2 8.6 15.7--- 3530.0wxwxwxwxwx4wx---1018.9 988.9 -1.6---------
2019-06-29 12:00:00 24.6 7.7 15.0--- 3435.0wxwxwxwxwx5wx-1451019.7 989.6 -0.9- 0.06------
2019-06-29 11:00:00 25.1 8.1 15.4--- 3435.0wxwxwxwxwx3wx-1431019.9 989.9 -0.7---------
2019-06-29 10:00:00 23.3 6.1 13.8--- 3335.0wxwxwxwx5wx-951020.7 990.5 -0.6---------
2019-06-29 09:00:00 22.2 7.2 13.8--- 3830.0wxwxwxwx4wx9941020.9 990.5 -0.5---------
2019-06-29 08:00:00 21.6 8.8 14.2--- 4435.0wx-wxwx2wx7721021.0 990.6 -0.8---------
2019-06-29 07:00:00 19.6 9.5 13.6--- 5230.0wx-wxwx2wx--21021.7 991.1 -0.4---------
2019-06-29 06:00:00 17.1 7.4 11.6 19.9 9.2 6 5340.0wx-wxwx2wx--21021.9 991.0 -0.3- 0.012----- 8.9
2019-06-29 05:00:00 15.0 8.0 10.8--- 6345.0wx-wxwx1wx--11022.6 991.4 0.4---------
2019-06-29 04:00:00 12.3 7.8 9.5--- 7440.0wx-wx0---01023.0 991.5 0.5---------
2019-06-29 03:00:00 9.5 5.9 7.3--- 7850.0wx-wx0---01023.1 991.3 0.7---------
2019-06-29 02:00:00 10.5 5.3 7.4--- 7050.0wx-wx1wx--11022.6 991.0 0.5---------
2019-06-29 01:00:00 12.8 5.2 8.5--- 6050.0wx-wx2wx--21022.4 991.0 0.9---------
2019-06-29 00:00:00 13.7 5.3 9.0--- 5750.0wx-2wx--21021.9 990.6 0.8- 0.06------
1.1 ms

 

Print Friendly, PDF & Email